ΕΜΥ, Εθνική Μετεωρολογική Υπηρεσία - Δελτία Καιρού, Προγνώσεις

ΑΕΡΟΝΑΥΤΙΛΙΑ

GREEK AIRPORTS CODES

TAF LGKA 250700Z 2509/2518 VRB03KT 9999 FEW025=

EUROPEAN AIRPORTS CODES

LFPO 251700Z 25003KT 9999 SCT043 BKN086 22/14 Q1013 NOSIG=